Portada
METAR-TAF:

METAR-TAF

Aeroports :

Exeter, Anglaterra

latitud: 50-44N, longitud: 003-25W, altitud: 30 m

Observació

L'informe es va fer fa 34 minuts, a les 19:20 UTC
Vent 6 kt del Sud
Temperatura 20°C
Humitat 60%
Pressió 1015 hPa
Visibilitat 10 km o més
sense núvols per sota de 1500 mi sense presència de cumulonimbus.

METAR: EGTE 241920Z 18006KT CAVOK 20/12 Q1015

Hora: 20:54 (19:54 UTC)

Pronòstic

L'informe es va fer fa 2 hores i 58 minuts, a les 16:56 UTC
Pronòstic vàlid del 24 a les 18 UTC al 25 a les 03 UTC
Vent 9 kt del Sud-Est
Visibilitat 10 km o més
Escasses núvols a una alçada de 2500 ft

TAF: EGTE 241656Z 2418/2503 13009KT 9999 FEW025

Observacions i pronòstics meteorològics de més de 4000 aeroports (METAR i TAF).

Les estacions disponibles són els punts grocs i vermells al mapa.

Posi el ratolí al punt desitjat per veure el nom de l'estació.

Feu clic per veure les observacions i els pronòstics meteorològics.

Per canviar el mapa: feu clic els botons verds amb una creu de color negre per apropar; al botó verd amb un guió per allunyar la imatge; o en les fletxes verdes per a mapes adjacents.


METAR-TAF: